sensor_id;sensor_type;location;lat;lon;timestamp;pressure;altitude;pressure_sealevel;temperature;humidity
70954;BME280;58618;47.490;8.736;2022-09-09T00:01:01;96337.31;;;12.51;100.00
70954;BME280;58618;47.490;8.736;2022-09-09T00:03:55;96339.91;;;12.51;100.00
70954;BME280;58618;47.490;8.736;2022-09-09T00:06:46;96336.66;;;12.45;100.00
70954;BME280;58618;47.490;8.736;2022-09-09T00:09:43;96337.81;;;12.53;100.00
70954;BME280;58618;47.490;8.736;2022-09-09T00:12:38;96342.78;;;12.63;100.00
70954;BME280;58618;47.490;8.736;2022-09-09T00:15:34;96335.97;;;12.67;100.00
70954;BME280;58618;47.490;8.736;2022-09-09T00:18:29;96327.63;;;12.43;100.00
70954;BME280;58618;47.490;8.736;2022-09-09T00:21:22;96335.69;;;12.55;100.00
70954;BME280;58618;47.490;8.736;2022-09-09T00:24:15;96335.47;;;12.65;100.00
70954;BME280;58618;47.490;8.736;2022-09-09T00:27:08;96333.66;;;12.79;100.00
70954;BME280;58618;47.490;8.736;2022-09-09T00:30:13;96336.25;;;12.65;100.00
70954;BME280;58618;47.490;8.736;2022-09-09T00:33:10;96335.28;;;12.75;100.00
70954;BME280;58618;47.490;8.736;2022-09-09T00:36:02;96334.72;;;12.78;100.00
70954;BME280;58618;47.490;8.736;2022-09-09T00:38:55;96325.69;;;12.89;100.00
70954;BME280;58618;47.490;8.736;2022-09-09T00:41:55;96327.28;;;12.99;100.00
70954;BME280;58618;47.490;8.736;2022-09-09T00:44:52;96331.09;;;13.01;100.00
70954;BME280;58618;47.490;8.736;2022-09-09T00:47:44;96328.50;;;13.01;100.00
70954;BME280;58618;47.490;8.736;2022-09-09T00:50:39;96316.66;;;13.00;100.00
70954;BME280;58618;47.490;8.736;2022-09-09T00:53:38;96327.34;;;13.07;100.00
70954;BME280;58618;47.490;8.736;2022-09-09T00:56:31;96321.06;;;12.86;100.00
70954;BME280;58618;47.490;8.736;2022-09-09T00:59:27;96321.19;;;12.81;100.00
70954;BME280;58618;47.490;8.736;2022-09-09T01:02:26;96315.13;;;12.99;100.00
70954;BME280;58618;47.490;8.736;2022-09-09T01:05:20;96318.66;;;13.03;100.00
70954;BME280;58618;47.490;8.736;2022-09-09T01:08:22;96324.69;;;13.13;100.00
70954;BME280;58618;47.490;8.736;2022-09-09T01:11:21;96313.75;;;13.16;100.00
70954;BME280;58618;47.490;8.736;2022-09-09T01:14:25;96321.97;;;13.18;100.00
70954;BME280;58618;47.490;8.736;2022-09-09T01:17:19;96314.53;;;13.02;100.00
70954;BME280;58618;47.490;8.736;2022-09-09T01:20:13;96325.88;;;12.93;100.00
70954;BME280;58618;47.490;8.736;2022-09-09T01:23:12;96333.34;;;12.94;100.00
70954;BME280;58618;47.490;8.736;2022-09-09T01:26:11;96325.09;;;12.92;100.00
70954;BME280;58618;47.490;8.736;2022-09-09T01:29:02;96331.81;;;12.93;100.00
70954;BME280;58618;47.490;8.736;2022-09-09T01:31:54;96327.19;;;12.90;100.00
70954;BME280;58618;47.490;8.736;2022-09-09T01:34:42;96332.03;;;12.83;100.00
70954;BME280;58618;47.490;8.736;2022-09-09T01:37:29;96332.41;;;12.77;100.00
70954;BME280;58618;47.490;8.736;2022-09-09T01:40:17;96329.16;;;12.71;100.00
70954;BME280;58618;47.490;8.736;2022-09-09T01:43:05;96333.19;;;12.77;100.00
70954;BME280;58618;47.490;8.736;2022-09-09T01:45:55;96338.16;;;12.74;100.00
70954;BME280;58618;47.490;8.736;2022-09-09T01:48:43;96331.25;;;12.69;100.00
70954;BME280;58618;47.490;8.736;2022-09-09T01:51:31;96335.38;;;12.70;100.00
70954;BME280;58618;47.490;8.736;2022-09-09T01:54:18;96332.13;;;12.64;100.00
70954;BME280;58618;47.490;8.736;2022-09-09T01:57:11;96332.44;;;12.36;100.00
70954;BME280;58618;47.490;8.736;2022-09-09T02:00:05;96340.66;;;12.38;100.00
70954;BME280;58618;47.490;8.736;2022-09-09T02:03:00;96353.88;;;12.50;100.00
70954;BME280;58618;47.490;8.736;2022-09-09T02:05:57;96350.16;;;12.56;100.00
70954;BME280;58618;47.490;8.736;2022-09-09T02:08:49;96356.56;;;12.58;100.00
70954;BME280;58618;47.490;8.736;2022-09-09T02:11:37;96348.50;;;12.60;100.00
70954;BME280;58618;47.490;8.736;2022-09-09T02:14:28;96352.47;;;12.57;100.00
70954;BME280;58618;47.490;8.736;2022-09-09T02:17:22;96350.06;;;12.61;100.00
70954;BME280;58618;47.490;8.736;2022-09-09T02:20:14;96352.91;;;12.32;100.00
70954;BME280;58618;47.490;8.736;2022-09-09T02:23:01;96368.44;;;12.32;100.00
70954;BME280;58618;47.490;8.736;2022-09-09T02:25:50;96377.16;;;12.50;100.00
70954;BME280;58618;47.490;8.736;2022-09-09T02:28:40;96379.56;;;12.60;100.00
70954;BME280;58618;47.490;8.736;2022-09-09T02:31:28;96375.34;;;12.64;100.00
70954;BME280;58618;47.490;8.736;2022-09-09T02:34:19;96362.31;;;12.55;100.00
70954;BME280;58618;47.490;8.736;2022-09-09T02:37:10;96365.28;;;12.49;100.00
70954;BME280;58618;47.490;8.736;2022-09-09T02:39:58;96366.91;;;12.58;100.00
70954;BME280;58618;47.490;8.736;2022-09-09T02:42:47;96371.91;;;12.55;100.00
70954;BME280;58618;47.490;8.736;2022-09-09T02:45:41;96374.59;;;12.63;100.00
70954;BME280;58618;47.490;8.736;2022-09-09T02:48:33;96372.09;;;12.58;100.00
70954;BME280;58618;47.490;8.736;2022-09-09T02:51:32;96374.69;;;12.72;100.00
70954;BME280;58618;47.490;8.736;2022-09-09T02:54:26;96389.75;;;12.84;100.00
70954;BME280;58618;47.490;8.736;2022-09-09T02:57:19;96388.97;;;12.83;100.00
70954;BME280;58618;47.490;8.736;2022-09-09T03:00:07;96386.84;;;12.85;100.00
70954;BME280;58618;47.490;8.736;2022-09-09T03:02:55;96373.25;;;12.66;100.00
70954;BME280;58618;47.490;8.736;2022-09-09T03:05:43;96395.38;;;12.86;100.00
70954;BME280;58618;47.490;8.736;2022-09-09T03:08:32;96395.84;;;13.01;100.00
70954;BME280;58618;47.490;8.736;2022-09-09T03:11:20;96397.75;;;12.96;100.00
70954;BME280;58618;47.490;8.736;2022-09-09T03:14:07;96390.00;;;13.09;100.00
70954;BME280;58618;47.490;8.736;2022-09-09T03:16:57;96388.88;;;13.16;100.00
70954;BME280;58618;47.490;8.736;2022-09-09T03:19:46;96385.13;;;12.94;100.00
70954;BME280;58618;47.490;8.736;2022-09-09T03:22:35;96385.13;;;12.94;100.00
70954;BME280;58618;47.490;8.736;2022-09-09T03:25:24;96394.88;;;12.97;100.00
70954;BME280;58618;47.490;8.736;2022-09-09T03:28:11;96390.47;;;13.11;100.00
70954;BME280;58618;47.490;8.736;2022-09-09T03:30:59;96376.09;;;13.05;100.00
70954;BME280;58618;47.490;8.736;2022-09-09T03:33:47;96387.59;;;13.27;100.00
70954;BME280;58618;47.490;8.736;2022-09-09T03:36:34;96382.19;;;13.37;100.00
70954;BME280;58618;47.490;8.736;2022-09-09T03:39:22;96385.63;;;13.46;100.00
70954;BME280;58618;47.490;8.736;2022-09-09T03:42:13;96387.03;;;13.52;100.00
70954;BME280;58618;47.490;8.736;2022-09-09T03:45:05;96390.56;;;13.56;100.00
70954;BME280;58618;47.490;8.736;2022-09-09T03:47:52;96393.66;;;13.58;100.00
70954;BME280;58618;47.490;8.736;2022-09-09T03:50:44;96392.28;;;13.61;100.00
70954;BME280;58618;47.490;8.736;2022-09-09T03:53:31;96381.97;;;13.47;100.00
70954;BME280;58618;47.490;8.736;2022-09-09T03:56:20;96385.84;;;13.36;100.00
70954;BME280;58618;47.490;8.736;2022-09-09T03:59:09;96381.72;;;13.35;100.00
70954;BME280;58618;47.490;8.736;2022-09-09T04:01:56;96389.97;;;13.59;100.00
70954;BME280;58618;47.490;8.736;2022-09-09T04:04:45;96379.56;;;13.73;100.00
70954;BME280;58618;47.490;8.736;2022-09-09T04:07:32;96389.03;;;13.77;100.00
70954;BME280;58618;47.490;8.736;2022-09-09T04:10:19;96384.91;;;13.76;100.00
70954;BME280;58618;47.490;8.736;2022-09-09T04:13:07;96402.38;;;13.84;100.00
70954;BME280;58618;47.490;8.736;2022-09-09T04:15:57;96383.91;;;13.86;100.00
70954;BME280;58618;47.490;8.736;2022-09-09T04:18:45;96389.63;;;13.96;100.00
70954;BME280;58618;47.490;8.736;2022-09-09T04:21:32;96388.44;;;14.03;100.00
70954;BME280;58618;47.490;8.736;2022-09-09T04:24:19;96395.16;;;14.04;100.00
70954;BME280;58618;47.490;8.736;2022-09-09T04:27:07;96395.16;;;14.04;100.00
70954;BME280;58618;47.490;8.736;2022-09-09T04:29:54;96395.16;;;14.04;100.00
70954;BME280;58618;47.490;8.736;2022-09-09T04:32:44;96386.31;;;14.05;100.00
70954;BME280;58618;47.490;8.736;2022-09-09T04:35:31;96382.91;;;13.95;100.00
70954;BME280;58618;47.490;8.736;2022-09-09T04:38:19;96381.56;;;13.98;100.00
70954;BME280;58618;47.490;8.736;2022-09-09T04:41:08;96380.66;;;14.03;100.00
70954;BME280;58618;47.490;8.736;2022-09-09T04:43:57;96388.84;;;13.96;100.00
70954;BME280;58618;47.490;8.736;2022-09-09T04:46:44;96384.69;;;13.86;100.00
70954;BME280;58618;47.490;8.736;2022-09-09T04:49:33;96383.97;;;13.72;100.00
70954;BME280;58618;47.490;8.736;2022-09-09T04:52:20;96386.28;;;13.74;100.00
70954;BME280;58618;47.490;8.736;2022-09-09T04:55:08;96387.06;;;13.74;100.00
70954;BME280;58618;47.490;8.736;2022-09-09T04:57:56;96382.56;;;13.88;100.00
70954;BME280;58618;47.490;8.736;2022-09-09T05:00:44;96386.56;;;13.94;100.00
70954;BME280;58618;47.490;8.736;2022-09-09T05:03:32;96375.44;;;13.94;100.00
70954;BME280;58618;47.490;8.736;2022-09-09T05:06:21;96371.00;;;13.94;100.00
70954;BME280;58618;47.490;8.736;2022-09-09T05:09:09;96378.25;;;14.06;100.00
70954;BME280;58618;47.490;8.736;2022-09-09T05:11:56;96380.63;;;13.94;100.00
70954;BME280;58618;47.490;8.736;2022-09-09T05:14:44;96378.47;;;13.96;100.00
70954;BME280;58618;47.490;8.736;2022-09-09T05:17:31;96386.91;;;14.02;100.00
70954;BME280;58618;47.490;8.736;2022-09-09T05:20:19;96382.91;;;13.95;100.00
70954;BME280;58618;47.490;8.736;2022-09-09T05:23:08;96390.91;;;14.08;100.00
70954;BME280;58618;47.490;8.736;2022-09-09T05:25:57;96389.38;;;14.07;100.00
70954;BME280;58618;47.490;8.736;2022-09-09T05:28:45;96393.97;;;14.10;100.00
70954;BME280;58618;47.490;8.736;2022-09-09T05:31:32;96393.97;;;14.10;100.00
70954;BME280;58618;47.490;8.736;2022-09-09T05:34:20;96393.88;;;13.92;100.00
70954;BME280;58618;47.490;8.736;2022-09-09T05:37:07;96394.09;;;13.82;100.00
70954;BME280;58618;47.490;8.736;2022-09-09T05:39:56;96401.53;;;13.98;100.00
70954;BME280;58618;47.490;8.736;2022-09-09T05:42:43;96395.25;;;13.90;100.00
70954;BME280;58618;47.490;8.736;2022-09-09T05:45:31;96398.81;;;14.03;100.00
70954;BME280;58618;47.490;8.736;2022-09-09T05:48:18;96404.34;;;14.10;100.00
70954;BME280;58618;47.490;8.736;2022-09-09T05:51:07;96400.34;;;14.04;100.00
70954;BME280;58618;47.490;8.736;2022-09-09T05:53:56;96413.44;;;13.99;100.00
70954;BME280;58618;47.490;8.736;2022-09-09T05:56:45;96417.84;;;13.98;100.00
70954;BME280;58618;47.490;8.736;2022-09-09T05:59:33;96416.38;;;14.06;100.00
70954;BME280;58618;47.490;8.736;2022-09-09T06:02:20;96413.56;;;14.16;100.00
70954;BME280;58618;47.490;8.736;2022-09-09T06:05:07;96406.53;;;14.16;100.00
70954;BME280;58618;47.490;8.736;2022-09-09T06:07:56;96402.56;;;14.19;100.00
70954;BME280;58618;47.490;8.736;2022-09-09T06:10:43;96405.97;;;14.28;100.00
70954;BME280;58618;47.490;8.736;2022-09-09T06:13:32;96400.44;;;14.43;100.00
70954;BME280;58618;47.490;8.736;2022-09-09T06:16:22;96403.97;;;14.47;100.00
70954;BME280;58618;47.490;8.736;2022-09-09T06:19:10;96407.00;;;14.49;100.00
70954;BME280;58618;47.490;8.736;2022-09-09T06:21:58;96406.16;;;14.62;100.00
70954;BME280;58618;47.490;8.736;2022-09-09T06:24:46;96401.47;;;14.82;100.00
70954;BME280;58618;47.490;8.736;2022-09-09T06:27:33;96399.16;;;14.71;100.00
70954;BME280;58618;47.490;8.736;2022-09-09T06:30:24;96395.56;;;14.90;100.00
70954;BME280;58618;47.490;8.736;2022-09-09T06:33:11;96394.66;;;15.03;100.00
70954;BME280;58618;47.490;8.736;2022-09-09T06:35:59;96389.97;;;15.22;100.00
70954;BME280;58618;47.490;8.736;2022-09-09T06:38:46;96405.00;;;15.68;100.00
70954;BME280;58618;47.490;8.736;2022-09-09T06:41:33;96400.84;;;15.76;100.00
70954;BME280;58618;47.490;8.736;2022-09-09T06:44:21;96402.06;;;16.04;100.00
70954;BME280;58618;47.490;8.736;2022-09-09T06:47:10;96401.31;;;16.50;100.00
70954;BME280;58618;47.490;8.736;2022-09-09T06:49:58;96404.41;;;16.43;98.11
70954;BME280;58618;47.490;8.736;2022-09-09T06:52:45;96401.34;;;16.41;99.17
70954;BME280;58618;47.490;8.736;2022-09-09T06:55:33;96401.34;;;16.41;100.00
70954;BME280;58618;47.490;8.736;2022-09-09T06:58:21;96393.34;;;16.46;98.46
70954;BME280;58618;47.490;8.736;2022-09-09T07:01:11;96402.34;;;16.11;98.96
70954;BME280;58618;47.490;8.736;2022-09-09T07:04:02;96406.34;;;16.00;100.00
70954;BME280;58618;47.490;8.736;2022-09-09T07:06:50;96403.91;;;15.95;100.00
70954;BME280;58618;47.490;8.736;2022-09-09T07:09:38;96389.19;;;15.99;100.00
70954;BME280;58618;47.490;8.736;2022-09-09T07:12:25;96411.56;;;16.00;100.00
70954;BME280;58618;47.490;8.736;2022-09-09T07:15:13;96408.31;;;17.25;98.13
70954;BME280;58618;47.490;8.736;2022-09-09T07:18:01;96416.50;;;17.86;92.35
70954;BME280;58618;47.490;8.736;2022-09-09T07:20:56;96405.41;;;17.48;91.47
70954;BME280;58618;47.490;8.736;2022-09-09T07:23:43;96414.22;;;17.64;90.80
70954;BME280;58618;47.490;8.736;2022-09-09T07:26:31;96412.91;;;17.91;91.81
70954;BME280;58618;47.490;8.736;2022-09-09T07:29:18;96406.22;;;18.83;88.25
70954;BME280;58618;47.490;8.736;2022-09-09T07:32:05;96405.91;;;18.61;83.89
70954;BME280;58618;47.490;8.736;2022-09-09T07:34:53;96398.38;;;19.72;82.34
70954;BME280;58618;47.490;8.736;2022-09-09T07:37:41;96409.78;;;20.35;76.71
70954;BME280;58618;47.490;8.736;2022-09-09T07:40:29;96403.94;;;20.57;76.17
70954;BME280;58618;47.490;8.736;2022-09-09T07:43:16;96410.00;;;21.43;73.89
70954;BME280;58618;47.490;8.736;2022-09-09T07:46:06;96415.41;;;22.08;71.03
70954;BME280;58618;47.490;8.736;2022-09-09T07:48:55;96416.44;;;22.04;68.61
70954;BME280;58618;47.490;8.736;2022-09-09T07:51:44;96425.00;;;22.43;68.08
70954;BME280;58618;47.490;8.736;2022-09-09T07:54:33;96424.47;;;22.79;66.65
70954;BME280;58618;47.490;8.736;2022-09-09T07:57:21;96425.53;;;22.97;65.12
70954;BME280;58618;47.490;8.736;2022-09-09T08:00:10;96422.47;;;23.48;64.74
70954;BME280;58618;47.490;8.736;2022-09-09T08:02:58;96428.50;;;23.48;64.48
70954;BME280;58618;47.490;8.736;2022-09-09T08:05:48;96424.44;;;23.84;62.48
70954;BME280;58618;47.490;8.736;2022-09-09T08:08:36;96431.19;;;23.85;63.13
70954;BME280;58618;47.490;8.736;2022-09-09T08:11:27;96435.47;;;23.64;61.75
70954;BME280;58618;47.490;8.736;2022-09-09T08:14:15;96433.53;;;23.04;64.42
70954;BME280;58618;47.490;8.736;2022-09-09T08:17:02;96437.25;;;23.30;64.06
70954;BME280;58618;47.490;8.736;2022-09-09T08:19:50;96443.03;;;22.21;64.86
70954;BME280;58618;47.490;8.736;2022-09-09T08:22:37;96432.06;;;22.39;67.52
70954;BME280;58618;47.490;8.736;2022-09-09T08:25:24;96440.16;;;22.07;68.70
70954;BME280;58618;47.490;8.736;2022-09-09T08:28:13;96440.00;;;21.11;72.70
70954;BME280;58618;47.490;8.736;2022-09-09T08:31:08;96434.53;;;21.51;70.55
70954;BME280;58618;47.490;8.736;2022-09-09T08:33:57;96441.56;;;21.47;71.67
70954;BME280;58618;47.490;8.736;2022-09-09T08:36:46;96436.25;;;20.61;70.87
70954;BME280;58618;47.490;8.736;2022-09-09T08:39:33;96442.72;;;20.83;72.58
70954;BME280;58618;47.490;8.736;2022-09-09T08:42:30;96438.03;;;21.59;74.13
70954;BME280;58618;47.490;8.736;2022-09-09T08:45:31;96441.44;;;21.78;70.40
70954;BME280;58618;47.490;8.736;2022-09-09T08:48:36;96437.16;;;20.53;72.30
70954;BME280;58618;47.490;8.736;2022-09-09T08:51:30;96437.09;;;20.22;73.80
70954;BME280;58618;47.490;8.736;2022-09-09T08:54:19;96442.97;;;20.47;75.43
70954;BME280;58618;47.490;8.736;2022-09-09T08:57:13;96444.34;;;20.41;74.43
70954;BME280;58618;47.490;8.736;2022-09-09T09:00:03;96446.03;;;20.21;77.26
70954;BME280;58618;47.490;8.736;2022-09-09T09:02:59;96439.47;;;19.99;75.61
70954;BME280;58618;47.490;8.736;2022-09-09T09:05:59;96451.88;;;19.87;77.40
70954;BME280;58618;47.490;8.736;2022-09-09T09:08:55;96449.28;;;19.74;81.32
70954;BME280;58618;47.490;8.736;2022-09-09T09:11:49;96444.34;;;19.85;79.60
70954;BME280;58618;47.490;8.736;2022-09-09T09:14:37;96440.84;;;20.37;76.33
70954;BME280;58618;47.490;8.736;2022-09-09T09:17:28;96434.44;;;20.97;71.21
70954;BME280;58618;47.490;8.736;2022-09-09T09:20:26;96429.38;;;21.20;70.14
70954;BME280;58618;47.490;8.736;2022-09-09T09:23:21;96435.28;;;21.71;70.74
70954;BME280;58618;47.490;8.736;2022-09-09T09:26:09;96436.28;;;22.01;69.66
70954;BME280;58618;47.490;8.736;2022-09-09T09:28:58;96432.78;;;21.59;66.50
70954;BME280;58618;47.490;8.736;2022-09-09T09:31:50;96429.91;;;21.64;66.69
70954;BME280;58618;47.490;8.736;2022-09-09T09:34:38;96440.59;;;21.36;66.42
70954;BME280;58618;47.490;8.736;2022-09-09T09:37:30;96431.31;;;20.91;63.64
70954;BME280;58618;47.490;8.736;2022-09-09T09:40:19;96436.50;;;20.56;66.09
70954;BME280;58618;47.490;8.736;2022-09-09T09:43:20;96439.78;;;20.53;67.28
70954;BME280;58618;47.490;8.736;2022-09-09T09:46:19;96443.84;;;20.35;66.41
70954;BME280;58618;47.490;8.736;2022-09-09T09:49:09;96432.53;;;20.19;66.82
70954;BME280;58618;47.490;8.736;2022-09-09T09:52:00;96437.97;;;19.98;66.36
70954;BME280;58618;47.490;8.736;2022-09-09T09:54:49;96437.47;;;20.36;73.35
70954;BME280;58618;47.490;8.736;2022-09-09T09:57:37;96438.88;;;20.61;68.38
70954;BME280;58618;47.490;8.736;2022-09-09T10:00:24;96432.16;;;20.64;67.77
70954;BME280;58618;47.490;8.736;2022-09-09T10:03:22;96429.88;;;20.94;68.96
70954;BME280;58618;47.490;8.736;2022-09-09T10:06:09;96435.78;;;21.22;66.39
70954;BME280;58618;47.490;8.736;2022-09-09T10:08:57;96439.97;;;21.42;62.51
70954;BME280;58618;47.490;8.736;2022-09-09T10:11:54;96433.88;;;21.38;61.08
70954;BME280;58618;47.490;8.736;2022-09-09T10:14:49;96431.16;;;21.51;61.88
70954;BME280;58618;47.490;8.736;2022-09-09T10:17:45;96434.16;;;21.33;63.23
70954;BME280;58618;47.490;8.736;2022-09-09T10:20:44;96439.53;;;20.90;63.46
70954;BME280;58618;47.490;8.736;2022-09-09T10:23:45;96449.41;;;20.49;65.43
70954;BME280;58618;47.490;8.736;2022-09-09T10:26:44;96447.22;;;20.08;65.88
70954;BME280;58618;47.490;8.736;2022-09-09T10:29:54;96443.78;;;19.92;65.05
70954;BME280;58618;47.490;8.736;2022-09-09T10:32:46;96456.84;;;20.04;65.88
70954;BME280;58618;47.490;8.736;2022-09-09T10:35:44;96446.81;;;19.94;66.83
70954;BME280;58618;47.490;8.736;2022-09-09T10:38:39;96457.25;;;20.06;67.24
70954;BME280;58618;47.490;8.736;2022-09-09T10:41:42;96455.66;;;20.17;64.80
70954;BME280;58618;47.490;8.736;2022-09-09T10:44:44;96459.00;;;20.02;64.86
70954;BME280;58618;47.490;8.736;2022-09-09T10:47:44;96467.75;;;20.21;69.14
70954;BME280;58618;47.490;8.736;2022-09-09T10:50:44;96458.03;;;20.34;65.98
70954;BME280;58618;47.490;8.736;2022-09-09T10:53:46;96460.66;;;20.34;64.38
70954;BME280;58618;47.490;8.736;2022-09-09T10:56:38;96455.56;;;20.41;64.14
70954;BME280;58618;47.490;8.736;2022-09-09T10:59:29;96456.94;;;20.35;61.72
70954;BME280;58618;47.490;8.736;2022-09-09T11:02:31;96450.50;;;20.48;62.92
70954;BME280;58618;47.490;8.736;2022-09-09T11:05:20;96450.44;;;20.60;61.72
70954;BME280;58618;47.490;8.736;2022-09-09T11:08:11;96439.31;;;20.36;60.35
70954;BME280;58618;47.490;8.736;2022-09-09T11:11:03;96446.44;;;20.35;63.00
70954;BME280;58618;47.490;8.736;2022-09-09T11:13:55;96448.06;;;20.40;62.36
70954;BME280;58618;47.490;8.736;2022-09-09T11:16:50;96438.34;;;20.40;65.92
70954;BME280;58618;47.490;8.736;2022-09-09T11:19:41;96426.16;;;20.32;62.45
70954;BME280;58618;47.490;8.736;2022-09-09T11:22:33;96434.03;;;20.20;61.03
70954;BME280;58618;47.490;8.736;2022-09-09T11:25:24;96431.00;;;20.18;62.87
70954;BME280;58618;47.490;8.736;2022-09-09T11:28:35;96416.53;;;20.08;61.90
70954;BME280;58618;47.490;8.736;2022-09-09T11:31:41;96417.19;;;20.05;65.62
70954;BME280;58618;47.490;8.736;2022-09-09T11:34:42;96414.06;;;20.00;66.46
70954;BME280;58618;47.490;8.736;2022-09-09T11:37:49;96410.06;;;20.18;69.32
70954;BME280;58618;47.490;8.736;2022-09-09T11:40:41;96400.41;;;20.22;64.57
70954;BME280;58618;47.490;8.736;2022-09-09T11:43:32;96397.28;;;20.16;62.15
70954;BME280;58618;47.490;8.736;2022-09-09T11:46:22;96398.72;;;20.14;63.39
70954;BME280;58618;47.490;8.736;2022-09-09T11:49:27;96393.75;;;20.24;61.48
70954;BME280;58618;47.490;8.736;2022-09-09T11:52:35;96392.69;;;20.41;66.52
70954;BME280;58618;47.490;8.736;2022-09-09T11:55:26;96385.75;;;20.33;63.26
70954;BME280;58618;47.490;8.736;2022-09-09T11:58:16;96397.78;;;20.50;66.97
70954;BME280;58618;47.490;8.736;2022-09-09T12:01:33;96395.22;;;20.53;60.46
70954;BME280;58618;47.490;8.736;2022-09-09T12:04:34;96395.31;;;20.41;61.38
70954;BME280;58618;47.490;8.736;2022-09-09T12:07:30;96390.22;;;20.33;62.16
70954;BME280;58618;47.490;8.736;2022-09-09T12:10:23;96395.97;;;20.38;66.37
70954;BME280;58618;47.490;8.736;2022-09-09T12:13:17;96392.31;;;20.27;66.38
70954;BME280;58618;47.490;8.736;2022-09-09T12:16:05;96381.19;;;20.30;65.82
70954;BME280;58618;47.490;8.736;2022-09-09T12:19:03;96380.41;;;20.30;66.87
70954;BME280;58618;47.490;8.736;2022-09-09T12:21:57;96377.91;;;20.49;69.12
70954;BME280;58618;47.490;8.736;2022-09-09T12:24:51;96369.78;;;20.54;63.82
70954;BME280;58618;47.490;8.736;2022-09-09T12:27:46;96368.44;;;20.60;67.32
70954;BME280;58618;47.490;8.736;2022-09-09T12:30:43;96371.31;;;20.55;66.13
70954;BME280;58618;47.490;8.736;2022-09-09T12:33:34;96369.59;;;20.47;62.85
70954;BME280;58618;47.490;8.736;2022-09-09T12:36:27;96361.44;;;20.83;66.51
70954;BME280;58618;47.490;8.736;2022-09-09T12:39:24;96358.66;;;20.92;62.22
70954;BME280;58618;47.490;8.736;2022-09-09T12:42:20;96344.03;;;21.10;60.00
70954;BME280;58618;47.490;8.736;2022-09-09T12:45:16;96348.09;;;21.23;58.88
70954;BME280;58618;47.490;8.736;2022-09-09T12:48:05;96343.84;;;21.34;58.56
70954;BME280;58618;47.490;8.736;2022-09-09T12:50:54;96340.22;;;21.42;54.31
70954;BME280;58618;47.490;8.736;2022-09-09T12:53:42;96337.81;;;21.53;54.57
70954;BME280;58618;47.490;8.736;2022-09-09T12:56:32;96336.56;;;21.47;56.61
70954;BME280;58618;47.490;8.736;2022-09-09T12:59:26;96327.81;;;21.39;60.23
70954;BME280;58618;47.490;8.736;2022-09-09T13:02:19;96326.97;;;21.16;55.66
70954;BME280;58618;47.490;8.736;2022-09-09T13:05:15;96329.97;;;20.99;57.18
70954;BME280;58618;47.490;8.736;2022-09-09T13:08:04;96324.97;;;20.94;58.88
70954;BME280;58618;47.490;8.736;2022-09-09T13:10:55;96327.75;;;21.01;59.06
70954;BME280;58618;47.490;8.736;2022-09-09T13:13:50;96316.59;;;21.04;57.43
70954;BME280;58618;47.490;8.736;2022-09-09T13:16:40;96312.28;;;20.96;57.22
70954;BME280;58618;47.490;8.736;2022-09-09T13:19:29;96312.88;;;20.89;58.10
70954;BME280;58618;47.490;8.736;2022-09-09T13:22:22;96315.88;;;20.88;57.82
70954;BME280;58618;47.490;8.736;2022-09-09T13:25:19;96316.00;;;20.95;60.29
70954;BME280;58618;47.490;8.736;2022-09-09T13:28:20;96307.75;;;20.93;59.27
70954;BME280;58618;47.490;8.736;2022-09-09T13:31:20;96310.81;;;21.14;59.77
70954;BME280;58618;47.490;8.736;2022-09-09T13:34:13;96309.78;;;21.38;61.27
70954;BME280;58618;47.490;8.736;2022-09-09T13:37:03;96310.69;;;21.45;55.77
70954;BME280;58618;47.490;8.736;2022-09-09T13:39:53;96303.78;;;21.37;57.17
70954;BME280;58618;47.490;8.736;2022-09-09T13:42:41;96300.66;;;21.51;54.11
70954;BME280;58618;47.490;8.736;2022-09-09T13:45:29;96296.00;;;21.64;59.48
70954;BME280;58618;47.490;8.736;2022-09-09T13:48:18;96294.22;;;21.68;64.09
70954;BME280;58618;47.490;8.736;2022-09-09T13:51:26;96293.38;;;21.64;59.81
70954;BME280;58618;47.490;8.736;2022-09-09T13:54:16;96292.78;;;21.51;58.61
70954;BME280;58618;47.490;8.736;2022-09-09T13:57:04;96286.31;;;21.45;63.67
70954;BME280;58618;47.490;8.736;2022-09-09T13:59:52;96284.84;;;21.47;63.98
70954;BME280;58618;47.490;8.736;2022-09-09T14:02:40;96292.69;;;21.67;61.32
70954;BME280;58618;47.490;8.736;2022-09-09T14:05:31;96278.28;;;21.80;56.30
70954;BME280;58618;47.490;8.736;2022-09-09T14:08:24;96283.25;;;21.85;57.67
70954;BME280;58618;47.490;8.736;2022-09-09T14:11:12;96276.88;;;21.86;53.85
70954;BME280;58618;47.490;8.736;2022-09-09T14:14:00;96277.19;;;21.81;50.51
70954;BME280;58618;47.490;8.736;2022-09-09T14:16:47;96275.66;;;21.80;52.83
70954;BME280;58618;47.490;8.736;2022-09-09T14:19:35;96286.59;;;21.82;55.66
70954;BME280;58618;47.490;8.736;2022-09-09T14:22:23;96281.25;;;21.56;51.89
70954;BME280;58618;47.490;8.736;2022-09-09T14:25:12;96289.25;;;21.43;53.69
70954;BME280;58618;47.490;8.736;2022-09-09T14:28:00;96292.31;;;21.45;52.11
70954;BME280;58618;47.490;8.736;2022-09-09T14:30:48;96290.66;;;21.57;57.32
70954;BME280;58618;47.490;8.736;2022-09-09T14:33:35;96290.34;;;21.62;57.38
70954;BME280;58618;47.490;8.736;2022-09-09T14:36:23;96289.94;;;21.60;51.82
70954;BME280;58618;47.490;8.736;2022-09-09T14:39:10;96284.53;;;21.72;54.63
70954;BME280;58618;47.490;8.736;2022-09-09T14:41:59;96288.28;;;21.94;54.22
70954;BME280;58618;47.490;8.736;2022-09-09T14:44:47;96306.66;;;21.94;51.45
70954;BME280;58618;47.490;8.736;2022-09-09T14:47:34;96302.22;;;21.94;52.59
70954;BME280;58618;47.490;8.736;2022-09-09T14:50:23;96295.69;;;21.88;53.32
70954;BME280;58618;47.490;8.736;2022-09-09T14:53:11;96302.22;;;21.94;52.79
70954;BME280;58618;47.490;8.736;2022-09-09T14:56:04;96296.75;;;21.83;50.92
70954;BME280;58618;47.490;8.736;2022-09-09T14:58:54;96299.72;;;21.82;50.98
70954;BME280;58618;47.490;8.736;2022-09-09T15:01:42;96299.28;;;21.80;52.52